sensor_id;sensor_type;location;lat;lon;timestamp;P1;durP1;ratioP1;P2;durP2;ratioP2
7737;SDS011;29398;45.328;5.558;2024-01-06T00:00:49;89.57;;;59.25;;
7737;SDS011;29398;45.328;5.558;2024-01-06T00:01:51;111.95;;;67.60;;
7737;SDS011;29398;45.328;5.558;2024-01-06T00:02:52;90.32;;;58.88;;
7737;SDS011;29398;45.328;5.558;2024-01-06T00:03:54;114.75;;;64.72;;
7737;SDS011;29398;45.328;5.558;2024-01-06T00:04:56;115.15;;;64.78;;
7737;SDS011;29398;45.328;5.558;2024-01-06T00:05:58;99.20;;;61.22;;
7737;SDS011;29398;45.328;5.558;2024-01-06T00:07:00;122.65;;;70.90;;
7737;SDS011;29398;45.328;5.558;2024-01-06T00:08:02;104.60;;;63.17;;
7737;SDS011;29398;45.328;5.558;2024-01-06T00:09:03;100.35;;;63.83;;
7737;SDS011;29398;45.328;5.558;2024-01-06T00:10:08;106.22;;;63.10;;
7737;SDS011;29398;45.328;5.558;2024-01-06T00:11:09;117.80;;;64.15;;
7737;SDS011;29398;45.328;5.558;2024-01-06T00:12:11;97.07;;;61.65;;
7737;SDS011;29398;45.328;5.558;2024-01-06T00:13:12;89.43;;;58.10;;
7737;SDS011;29398;45.328;5.558;2024-01-06T00:14:15;111.90;;;62.40;;
7737;SDS011;29398;45.328;5.558;2024-01-06T00:15:16;84.15;;;55.97;;
7737;SDS011;29398;45.328;5.558;2024-01-06T00:16:18;142.77;;;71.03;;
7737;SDS011;29398;45.328;5.558;2024-01-06T00:17:20;110.57;;;60.42;;
7737;SDS011;29398;45.328;5.558;2024-01-06T00:18:22;175.85;;;76.75;;
7737;SDS011;29398;45.328;5.558;2024-01-06T00:19:23;156.68;;;76.97;;
7737;SDS011;29398;45.328;5.558;2024-01-06T00:20:24;141.48;;;71.95;;
7737;SDS011;29398;45.328;5.558;2024-01-06T00:21:26;123.75;;;66.10;;
7737;SDS011;29398;45.328;5.558;2024-01-06T00:22:27;143.40;;;70.20;;
7737;SDS011;29398;45.328;5.558;2024-01-06T00:23:28;124.53;;;66.50;;
7737;SDS011;29398;45.328;5.558;2024-01-06T00:24:30;104.25;;;60.42;;
7737;SDS011;29398;45.328;5.558;2024-01-06T00:25:33;88.53;;;54.92;;
7737;SDS011;29398;45.328;5.558;2024-01-06T00:26:35;86.03;;;55.78;;
7737;SDS011;29398;45.328;5.558;2024-01-06T00:27:37;96.60;;;56.90;;
7737;SDS011;29398;45.328;5.558;2024-01-06T00:28:39;97.35;;;56.20;;
7737;SDS011;29398;45.328;5.558;2024-01-06T00:29:40;97.32;;;56.83;;
7737;SDS011;29398;45.328;5.558;2024-01-06T00:30:42;86.07;;;56.05;;
7737;SDS011;29398;45.328;5.558;2024-01-06T00:31:43;94.90;;;56.00;;
7737;SDS011;29398;45.328;5.558;2024-01-06T00:32:45;89.55;;;56.17;;
7737;SDS011;29398;45.328;5.558;2024-01-06T00:33:46;106.20;;;54.38;;
7737;SDS011;29398;45.328;5.558;2024-01-06T00:34:47;79.75;;;53.53;;
7737;SDS011;29398;45.328;5.558;2024-01-06T00:35:49;63.25;;;46.72;;
7737;SDS011;29398;45.328;5.558;2024-01-06T00:36:50;79.53;;;53.20;;
7737;SDS011;29398;45.328;5.558;2024-01-06T00:37:52;68.88;;;48.13;;
7737;SDS011;29398;45.328;5.558;2024-01-06T00:38:55;66.47;;;47.72;;
7737;SDS011;29398;45.328;5.558;2024-01-06T00:39:56;66.10;;;49.30;;
7737;SDS011;29398;45.328;5.558;2024-01-06T00:41:00;64.35;;;47.55;;
7737;SDS011;29398;45.328;5.558;2024-01-06T00:42:01;60.50;;;44.78;;
7737;SDS011;29398;45.328;5.558;2024-01-06T00:43:03;73.22;;;49.97;;
7737;SDS011;29398;45.328;5.558;2024-01-06T00:44:04;70.63;;;48.28;;
7737;SDS011;29398;45.328;5.558;2024-01-06T00:45:07;67.70;;;48.13;;
7737;SDS011;29398;45.328;5.558;2024-01-06T00:46:08;100.15;;;55.20;;
7737;SDS011;29398;45.328;5.558;2024-01-06T00:47:11;71.90;;;49.47;;
7737;SDS011;29398;45.328;5.558;2024-01-06T00:48:12;77.85;;;49.63;;
7737;SDS011;29398;45.328;5.558;2024-01-06T00:49:14;63.42;;;47.28;;
7737;SDS011;29398;45.328;5.558;2024-01-06T00:50:15;56.15;;;43.00;;
7737;SDS011;29398;45.328;5.558;2024-01-06T00:51:19;51.58;;;42.10;;
7737;SDS011;29398;45.328;5.558;2024-01-06T00:52:20;72.72;;;49.90;;
7737;SDS011;29398;45.328;5.558;2024-01-06T00:53:22;61.38;;;43.63;;
7737;SDS011;29398;45.328;5.558;2024-01-06T00:54:23;50.53;;;40.40;;
7737;SDS011;29398;45.328;5.558;2024-01-06T00:55:25;47.22;;;39.33;;
7737;SDS011;29398;45.328;5.558;2024-01-06T00:56:28;46.55;;;39.05;;
7737;SDS011;29398;45.328;5.558;2024-01-06T00:57:30;52.05;;;41.60;;
7737;SDS011;29398;45.328;5.558;2024-01-06T00:58:31;68.13;;;45.40;;
7737;SDS011;29398;45.328;5.558;2024-01-06T00:59:32;51.58;;;40.22;;
7737;SDS011;29398;45.328;5.558;2024-01-06T01:00:34;50.67;;;40.80;;
7737;SDS011;29398;45.328;5.558;2024-01-06T01:01:35;49.13;;;40.03;;
7737;SDS011;29398;45.328;5.558;2024-01-06T01:02:37;51.13;;;39.67;;
7737;SDS011;29398;45.328;5.558;2024-01-06T01:03:38;40.08;;;33.33;;
7737;SDS011;29398;45.328;5.558;2024-01-06T01:04:39;41.40;;;31.98;;
7737;SDS011;29398;45.328;5.558;2024-01-06T01:05:42;36.80;;;27.92;;
7737;SDS011;29398;45.328;5.558;2024-01-06T01:06:43;33.08;;;23.30;;
7737;SDS011;29398;45.328;5.558;2024-01-06T01:07:45;37.05;;;24.27;;
7737;SDS011;29398;45.328;5.558;2024-01-06T01:08:46;24.13;;;16.77;;
7737;SDS011;29398;45.328;5.558;2024-01-06T01:09:48;21.92;;;12.75;;
7737;SDS011;29398;45.328;5.558;2024-01-06T01:10:49;20.67;;;12.25;;
7737;SDS011;29398;45.328;5.558;2024-01-06T01:11:52;16.63;;;10.02;;
7737;SDS011;29398;45.328;5.558;2024-01-06T01:12:53;13.68;;;9.13;;
7737;SDS011;29398;45.328;5.558;2024-01-06T01:13:54;13.50;;;8.80;;
7737;SDS011;29398;45.328;5.558;2024-01-06T01:14:56;11.73;;;7.63;;
7737;SDS011;29398;45.328;5.558;2024-01-06T01:15:57;10.48;;;6.70;;
7737;SDS011;29398;45.328;5.558;2024-01-06T01:16:59;10.50;;;6.05;;
7737;SDS011;29398;45.328;5.558;2024-01-06T01:18:00;9.07;;;5.47;;
7737;SDS011;29398;45.328;5.558;2024-01-06T01:19:03;7.68;;;5.50;;
7737;SDS011;29398;45.328;5.558;2024-01-06T01:20:04;9.98;;;5.32;;
7737;SDS011;29398;45.328;5.558;2024-01-06T01:21:06;7.65;;;5.30;;
7737;SDS011;29398;45.328;5.558;2024-01-06T01:22:09;5.85;;;4.28;;
7737;SDS011;29398;45.328;5.558;2024-01-06T01:23:10;9.35;;;5.07;;
7737;SDS011;29398;45.328;5.558;2024-01-06T01:24:13;7.85;;;4.50;;
7737;SDS011;29398;45.328;5.558;2024-01-06T01:25:14;10.65;;;5.82;;
7737;SDS011;29398;45.328;5.558;2024-01-06T01:26:16;10.68;;;5.03;;
7737;SDS011;29398;45.328;5.558;2024-01-06T01:27:18;5.82;;;4.00;;
7737;SDS011;29398;45.328;5.558;2024-01-06T01:28:20;5.30;;;4.25;;
7737;SDS011;29398;45.328;5.558;2024-01-06T01:29:22;5.97;;;4.20;;
7737;SDS011;29398;45.328;5.558;2024-01-06T01:30:24;5.63;;;4.43;;
7737;SDS011;29398;45.328;5.558;2024-01-06T01:31:25;7.88;;;4.75;;
7737;SDS011;29398;45.328;5.558;2024-01-06T01:32:27;6.97;;;4.45;;
7737;SDS011;29398;45.328;5.558;2024-01-06T01:33:28;5.22;;;3.92;;
7737;SDS011;29398;45.328;5.558;2024-01-06T01:34:30;4.97;;;3.92;;
7737;SDS011;29398;45.328;5.558;2024-01-06T01:35:31;6.15;;;3.85;;
7737;SDS011;29398;45.328;5.558;2024-01-06T01:36:33;7.18;;;4.32;;
7737;SDS011;29398;45.328;5.558;2024-01-06T01:37:34;6.18;;;4.00;;
7737;SDS011;29398;45.328;5.558;2024-01-06T01:38:36;7.13;;;3.70;;
7737;SDS011;29398;45.328;5.558;2024-01-06T01:39:37;5.15;;;3.47;;
7737;SDS011;29398;45.328;5.558;2024-01-06T01:40:39;5.68;;;3.83;;
7737;SDS011;29398;45.328;5.558;2024-01-06T01:41:40;8.88;;;4.30;;
7737;SDS011;29398;45.328;5.558;2024-01-06T01:42:44;7.55;;;4.05;;
7737;SDS011;29398;45.328;5.558;2024-01-06T01:43:45;7.70;;;3.90;;
7737;SDS011;29398;45.328;5.558;2024-01-06T01:44:47;7.35;;;4.22;;
7737;SDS011;29398;45.328;5.558;2024-01-06T01:45:50;5.20;;;3.72;;
7737;SDS011;29398;45.328;5.558;2024-01-06T01:46:54;3.35;;;3.05;;
7737;SDS011;29398;45.328;5.558;2024-01-06T01:47:56;4.00;;;3.22;;
7737;SDS011;29398;45.328;5.558;2024-01-06T01:48:59;3.67;;;2.97;;
7737;SDS011;29398;45.328;5.558;2024-01-06T01:50:01;4.97;;;3.33;;
7737;SDS011;29398;45.328;5.558;2024-01-06T01:51:05;4.70;;;3.38;;
7737;SDS011;29398;45.328;5.558;2024-01-06T01:52:08;4.72;;;3.60;;
7737;SDS011;29398;45.328;5.558;2024-01-06T01:53:10;5.55;;;3.70;;
7737;SDS011;29398;45.328;5.558;2024-01-06T01:54:12;6.88;;;3.75;;
7737;SDS011;29398;45.328;5.558;2024-01-06T01:55:15;5.43;;;4.22;;
7737;SDS011;29398;45.328;5.558;2024-01-06T01:56:16;6.20;;;4.57;;
7737;SDS011;29398;45.328;5.558;2024-01-06T01:57:19;7.70;;;4.07;;
7737;SDS011;29398;45.328;5.558;2024-01-06T01:58:25;8.07;;;4.40;;
7737;SDS011;29398;45.328;5.558;2024-01-06T01:59:27;7.55;;;4.10;;
7737;SDS011;29398;45.328;5.558;2024-01-06T02:00:28;5.90;;;4.40;;
7737;SDS011;29398;45.328;5.558;2024-01-06T02:01:31;8.10;;;4.78;;
7737;SDS011;29398;45.328;5.558;2024-01-06T02:02:33;6.78;;;5.00;;
7737;SDS011;29398;45.328;5.558;2024-01-06T02:03:35;9.50;;;5.38;;
7737;SDS011;29398;45.328;5.558;2024-01-06T02:04:37;6.43;;;4.57;;
7737;SDS011;29398;45.328;5.558;2024-01-06T02:05:40;7.28;;;4.80;;
7737;SDS011;29398;45.328;5.558;2024-01-06T02:06:41;8.18;;;5.18;;
7737;SDS011;29398;45.328;5.558;2024-01-06T02:07:43;6.50;;;5.40;;
7737;SDS011;29398;45.328;5.558;2024-01-06T02:08:44;7.90;;;5.05;;
7737;SDS011;29398;45.328;5.558;2024-01-06T02:09:47;8.07;;;5.18;;
7737;SDS011;29398;45.328;5.558;2024-01-06T02:10:48;5.78;;;4.78;;
7737;SDS011;29398;45.328;5.558;2024-01-06T02:11:49;7.53;;;5.55;;
7737;SDS011;29398;45.328;5.558;2024-01-06T02:12:51;7.10;;;4.93;;
7737;SDS011;29398;45.328;5.558;2024-01-06T02:13:53;6.35;;;4.72;;
7737;SDS011;29398;45.328;5.558;2024-01-06T02:14:55;7.20;;;5.13;;
7737;SDS011;29398;45.328;5.558;2024-01-06T02:15:57;6.45;;;4.70;;
7737;SDS011;29398;45.328;5.558;2024-01-06T02:16:58;7.07;;;4.63;;
7737;SDS011;29398;45.328;5.558;2024-01-06T02:18:00;9.23;;;5.03;;
7737;SDS011;29398;45.328;5.558;2024-01-06T02:19:01;8.70;;;4.57;;
7737;SDS011;29398;45.328;5.558;2024-01-06T02:20:04;9.35;;;5.80;;
7737;SDS011;29398;45.328;5.558;2024-01-06T02:21:07;7.85;;;5.53;;
7737;SDS011;29398;45.328;5.558;2024-01-06T02:22:10;6.63;;;5.10;;
7737;SDS011;29398;45.328;5.558;2024-01-06T02:23:11;6.65;;;5.00;;
7737;SDS011;29398;45.328;5.558;2024-01-06T02:24:13;8.00;;;5.40;;
7737;SDS011;29398;45.328;5.558;2024-01-06T02:25:14;8.57;;;5.20;;
7737;SDS011;29398;45.328;5.558;2024-01-06T02:26:17;7.72;;;5.32;;
7737;SDS011;29398;45.328;5.558;2024-01-06T02:27:19;6.75;;;5.53;;
7737;SDS011;29398;45.328;5.558;2024-01-06T02:28:21;9.00;;;5.90;;
7737;SDS011;29398;45.328;5.558;2024-01-06T02:29:22;7.43;;;5.10;;
7737;SDS011;29398;45.328;5.558;2024-01-06T02:30:24;5.93;;;5.32;;
7737;SDS011;29398;45.328;5.558;2024-01-06T02:31:26;6.82;;;5.32;;
7737;SDS011;29398;45.328;5.558;2024-01-06T02:32:28;8.63;;;5.00;;
7737;SDS011;29398;45.328;5.558;2024-01-06T02:33:29;8.50;;;4.97;;
7737;SDS011;29398;45.328;5.558;2024-01-06T02:34:31;7.43;;;5.82;;
7737;SDS011;29398;45.328;5.558;2024-01-06T02:35:33;12.15;;;5.20;;
7737;SDS011;29398;45.328;5.558;2024-01-06T02:36:35;6.68;;;5.15;;
7737;SDS011;29398;45.328;5.558;2024-01-06T02:37:37;6.78;;;5.38;;
7737;SDS011;29398;45.328;5.558;2024-01-06T02:38:39;7.70;;;5.18;;
7737;SDS011;29398;45.328;5.558;2024-01-06T02:39:40;9.45;;;4.95;;
7737;SDS011;29398;45.328;5.558;2024-01-06T02:40:42;7.68;;;5.05;;
7737;SDS011;29398;45.328;5.558;2024-01-06T02:41:43;7.30;;;5.20;;
7737;SDS011;29398;45.328;5.558;2024-01-06T02:42:45;7.10;;;5.22;;
7737;SDS011;29398;45.328;5.558;2024-01-06T02:43:46;5.57;;;4.95;;
7737;SDS011;29398;45.328;5.558;2024-01-06T02:44:48;7.68;;;4.97;;
7737;SDS011;29398;45.328;5.558;2024-01-06T02:45:49;6.90;;;4.70;;
7737;SDS011;29398;45.328;5.558;2024-01-06T02:46:51;6.25;;;4.63;;
7737;SDS011;29398;45.328;5.558;2024-01-06T02:47:54;8.48;;;5.30;;
7737;SDS011;29398;45.328;5.558;2024-01-06T02:48:56;6.63;;;5.13;;
7737;SDS011;29398;45.328;5.558;2024-01-06T02:49:57;9.55;;;5.20;;
7737;SDS011;29398;45.328;5.558;2024-01-06T02:50:59;9.98;;;5.57;;
7737;SDS011;29398;45.328;5.558;2024-01-06T02:52:00;5.85;;;4.43;;
7737;SDS011;29398;45.328;5.558;2024-01-06T02:53:04;6.65;;;4.78;;
7737;SDS011;29398;45.328;5.558;2024-01-06T02:54:05;8.50;;;4.40;;
7737;SDS011;29398;45.328;5.558;2024-01-06T02:55:07;6.50;;;4.40;;
7737;SDS011;29398;45.328;5.558;2024-01-06T02:56:09;7.78;;;4.57;;
7737;SDS011;29398;45.328;5.558;2024-01-06T02:57:11;6.38;;;4.45;;
7737;SDS011;29398;45.328;5.558;2024-01-06T02:58:13;5.88;;;4.50;;
7737;SDS011;29398;45.328;5.558;2024-01-06T02:59:15;7.50;;;4.85;;
7737;SDS011;29398;45.328;5.558;2024-01-06T03:00:17;6.97;;;4.55;;
7737;SDS011;29398;45.328;5.558;2024-01-06T03:01:19;8.05;;;4.93;;
7737;SDS011;29398;45.328;5.558;2024-01-06T03:02:20;9.60;;;5.20;;
7737;SDS011;29398;45.328;5.558;2024-01-06T03:03:22;9.07;;;5.47;;
7737;SDS011;29398;45.328;5.558;2024-01-06T03:04:23;7.97;;;5.28;;
7737;SDS011;29398;45.328;5.558;2024-01-06T03:05:25;7.72;;;4.63;;
7737;SDS011;29398;45.328;5.558;2024-01-06T03:06:26;11.38;;;5.93;;
7737;SDS011;29398;45.328;5.558;2024-01-06T03:07:29;7.13;;;4.80;;
7737;SDS011;29398;45.328;5.558;2024-01-06T03:08:31;5.10;;;4.60;;
7737;SDS011;29398;45.328;5.558;2024-01-06T03:09:34;6.40;;;4.50;;
7737;SDS011;29398;45.328;5.558;2024-01-06T03:10:36;6.32;;;5.05;;
7737;SDS011;29398;45.328;5.558;2024-01-06T03:11:38;7.20;;;4.93;;
7737;SDS011;29398;45.328;5.558;2024-01-06T03:12:39;7.45;;;5.22;;
7737;SDS011;29398;45.328;5.558;2024-01-06T03:13:41;5.97;;;4.30;;
7737;SDS011;29398;45.328;5.558;2024-01-06T03:14:42;7.88;;;4.80;;
7737;SDS011;29398;45.328;5.558;2024-01-06T03:15:44;7.57;;;4.95;;
7737;SDS011;29398;45.328;5.558;2024-01-06T03:16:46;7.00;;;5.70;;
7737;SDS011;29398;45.328;5.558;2024-01-06T03:17:48;5.88;;;5.28;;
7737;SDS011;29398;45.328;5.558;2024-01-06T03:18:49;7.07;;;5.13;;
7737;SDS011;29398;45.328;5.558;2024-01-06T03:19:51;8.68;;;5.15;;
7737;SDS011;29398;45.328;5.558;2024-01-06T03:20:52;7.50;;;4.35;;
7737;SDS011;29398;45.328;5.558;2024-01-06T03:21:54;8.00;;;4.28;;
7737;SDS011;29398;45.328;5.558;2024-01-06T03:22:56;10.30;;;4.50;;
7737;SDS011;29398;45.328;5.558;2024-01-06T03:23:59;8.80;;;4.68;;
7737;SDS011;29398;45.328;5.558;2024-01-06T03:25:00;8.43;;;4.85;;
7737;SDS011;29398;45.328;5.558;2024-01-06T03:26:05;7.53;;;5.25;;
7737;SDS011;29398;45.328;5.558;2024-01-06T03:27:06;10.23;;;4.55;;
7737;SDS011;29398;45.328;5.558;2024-01-06T03:28:09;5.03;;;4.47;;
7737;SDS011;29398;45.328;5.558;2024-01-06T03:29:10;7.78;;;4.25;;
7737;SDS011;29398;45.328;5.558;2024-01-06T03:30:13;7.05;;;4.28;;
7737;SDS011;29398;45.328;5.558;2024-01-06T03:31:14;8.38;;;4.90;;
7737;SDS011;29398;45.328;5.558;2024-01-06T03:32:16;6.40;;;3.85;;
7737;SDS011;29398;45.328;5.558;2024-01-06T03:33:17;8.32;;;4.40;;
7737;SDS011;29398;45.328;5.558;2024-01-06T03:34:19;5.28;;;3.90;;
7737;SDS011;29398;45.328;5.558;2024-01-06T03:35:20;4.55;;;3.85;;
7737;SDS011;29398;45.328;5.558;2024-01-06T03:36:22;6.43;;;3.80;;
7737;SDS011;29398;45.328;5.558;2024-01-06T03:37:23;7.88;;;4.03;;
7737;SDS011;29398;45.328;5.558;2024-01-06T03:38:24;6.38;;;4.22;;
7737;SDS011;29398;45.328;5.558;2024-01-06T03:39:28;7.45;;;4.03;;
7737;SDS011;29398;45.328;5.558;2024-01-06T03:40:29;8.45;;;4.50;;
7737;SDS011;29398;45.328;5.558;2024-01-06T03:41:31;7.10;;;3.75;;
7737;SDS011;29398;45.328;5.558;2024-01-06T03:42:32;7.05;;;4.38;;
7737;SDS011;29398;45.328;5.558;2024-01-06T03:43:33;4.97;;;3.90;;
7737;SDS011;29398;45.328;5.558;2024-01-06T03:44:35;6.22;;;4.05;;
7737;SDS011;29398;45.328;5.558;2024-01-06T03:45:36;9.30;;;4.40;;
7737;SDS011;29398;45.328;5.558;2024-01-06T03:46:38;7.85;;;4.22;;
7737;SDS011;29398;45.328;5.558;2024-01-06T03:47:39;7.95;;;4.15;;
7737;SDS011;29398;45.328;5.558;2024-01-06T03:48:42;6.40;;;3.90;;
7737;SDS011;29398;45.328;5.558;2024-01-06T03:49:43;7.63;;;3.72;;
7737;SDS011;29398;45.328;5.558;2024-01-06T03:50:47;8.73;;;3.70;;
7737;SDS011;29398;45.328;5.558;2024-01-06T03:51:49;5.78;;;4.00;;
7737;SDS011;29398;45.328;5.558;2024-01-06T03:52:50;7.47;;;4.00;;
7737;SDS011;29398;45.328;5.558;2024-01-06T03:53:52;7.35;;;4.47;;
7737;SDS011;29398;45.328;5.558;2024-01-06T03:54:54;8.23;;;4.30;;
7737;SDS011;29398;45.328;5.558;2024-01-06T03:55:56;7.80;;;4.30;;
7737;SDS011;29398;45.328;5.558;2024-01-06T03:56:58;7.22;;;4.28;;
7737;SDS011;29398;45.328;5.558;2024-01-06T03:58:00;6.88;;;4.18;;
7737;SDS011;29398;45.328;5.558;2024-01-06T03:59:01;8.93;;;4.47;;
7737;SDS011;29398;45.328;5.558;2024-01-06T04:00:03;9.48;;;4.40;;
7737;SDS011;29398;45.328;5.558;2024-01-06T04:01:05;8.35;;;4.57;;
7737;SDS011;29398;45.328;5.558;2024-01-06T04:02:07;8.20;;;4.20;;
7737;SDS011;29398;45.328;5.558;2024-01-06T04:03:09;8.65;;;4.53;;
7737;SDS011;29398;45.328;5.558;2024-01-06T04:04:11;5.47;;;3.80;;
7737;SDS011;29398;45.328;5.558;2024-01-06T04:05:12;6.47;;;3.80;;
7737;SDS011;29398;45.328;5.558;2024-01-06T04:06:14;8.07;;;4.07;;
7737;SDS011;29398;45.328;5.558;2024-01-06T04:07:15;9.07;;;4.20;;
7737;SDS011;29398;45.328;5.558;2024-01-06T04:08:17;8.00;;;4.30;;
7737;SDS011;29398;45.328;5.558;2024-01-06T04:09:18;7.03;;;4.60;;
7737;SDS011;29398;45.328;5.558;2024-01-06T04:10:22;8.82;;;4.15;;
7737;SDS011;29398;45.328;5.558;2024-01-06T04:11:23;4.95;;;4.03;;
7737;SDS011;29398;45.328;5.558;2024-01-06T04:12:25;8.75;;;4.30;;
7737;SDS011;29398;45.328;5.558;2024-01-06T04:13:26;7.50;;;3.80;;
7737;SDS011;29398;45.328;5.558;2024-01-06T04:14:28;6.22;;;4.22;;
7737;SDS011;29398;45.328;5.558;2024-01-06T04:15:29;5.47;;;3.72;;
7737;SDS011;29398;45.328;5.558;2024-01-06T04:16:31;6.65;;;4.30;;
7737;SDS011;29398;45.328;5.558;2024-01-06T04:17:33;8.48;;;4.13;;
7737;SDS011;29398;45.328;5.558;2024-01-06T04:18:35;4.85;;;4.00;;
7737;SDS011;29398;45.328;5.558;2024-01-06T04:19:36;8.00;;;3.83;;
7737;SDS011;29398;45.328;5.558;2024-01-06T04:20:38;5.13;;;3.80;;
7737;SDS011;29398;45.328;5.558;2024-01-06T04:21:39;6.22;;;3.70;;
7737;SDS011;29398;45.328;5.558;2024-01-06T04:22:41;5.60;;;3.85;;
7737;SDS011;29398;45.328;5.558;2024-01-06T04:23:42;9.00;;;4.18;;
7737;SDS011;29398;45.328;5.558;2024-01-06T04:24:44;7.97;;;4.32;;
7737;SDS011;29398;45.328;5.558;2024-01-06T04:25:47;6.72;;;4.00;;
7737;SDS011;29398;45.328;5.558;2024-01-06T04:26:49;9.32;;;4.60;;
7737;SDS011;29398;45.328;5.558;2024-01-06T04:27:50;7.97;;;4.30;;
7737;SDS011;29398;45.328;5.558;2024-01-06T04:28:51;10.80;;;4.18;;
7737;SDS011;29398;45.328;5.558;2024-01-06T04:29:53;5.78;;;4.20;;
7737;SDS011;29398;45.328;5.558;2024-01-06T04:30:54;10.00;;;4.45;;
7737;SDS011;29398;45.328;5.558;2024-01-06T04:31:56;8.55;;;4.20;;
7737;SDS011;29398;45.328;5.558;2024-01-06T04:32:58;10.38;;;4.65;;
7737;SDS011;29398;45.328;5.558;2024-01-06T04:34:00;8.00;;;4.00;;
7737;SDS011;29398;45.328;5.558;2024-01-06T04:35:01;7.85;;;3.70;;
7737;SDS011;29398;45.328;5.558;2024-01-06T04:36:03;6.28;;;3.97;;
7737;SDS011;29398;45.328;5.558;2024-01-06T04:37:06;6.50;;;4.03;;
7737;SDS011;29398;45.328;5.558;2024-01-06T04:38:07;8.80;;;3.65;;
7737;SDS011;29398;45.328;5.558;2024-01-06T04:39:09;12.88;;;4.90;;
7737;SDS011;29398;45.328;5.558;2024-01-06T04:40:11;7.28;;;4.10;;
7737;SDS011;29398;45.328;5.558;2024-01-06T04:41:14;7.93;;;4.10;;
7737;SDS011;29398;45.328;5.558;2024-01-06T04:42:16;8.45;;;4.07;;
7737;SDS011;29398;45.328;5.558;2024-01-06T04:43:19;7.35;;;4.05;;
7737;SDS011;29398;45.328;5.558;2024-01-06T04:44:20;7.82;;;4.20;;
7737;SDS011;29398;45.328;5.558;2024-01-06T04:45:23;5.80;;;3.67;;
7737;SDS011;29398;45.328;5.558;2024-01-06T04:46:24;6.07;;;3.75;;
7737;SDS011;29398;45.328;5.558;2024-01-06T04:47:26;7.65;;;3.90;;
7737;SDS011;29398;45.328;5.558;2024-01-06T04:48:28;6.32;;;3.80;;
7737;SDS011;29398;45.328;5.558;2024-01-06T04:49:30;4.82;;;3.28;;
7737;SDS011;29398;45.328;5.558;2024-01-06T04:50:31;8.07;;;3.53;;
7737;SDS011;29398;45.328;5.558;2024-01-06T04:51:33;10.18;;;3.80;;
7737;SDS011;29398;45.328;5.558;2024-01-06T04:52:34;8.32;;;3.83;;
7737;SDS011;29398;45.328;5.558;2024-01-06T04:53:35;7.10;;;3.90;;
7737;SDS011;29398;45.328;5.558;2024-01-06T04:54:37;11.65;;;4.05;;
7737;SDS011;29398;45.328;5.558;2024-01-06T04:55:38;6.82;;;3.75;;
7737;SDS011;29398;45.328;5.558;2024-01-06T04:56:42;7.68;;;4.00;;
7737;SDS011;29398;45.328;5.558;2024-01-06T04:57:43;8.23;;;3.92;;
7737;SDS011;29398;45.328;5.558;2024-01-06T04:58:44;6.85;;;3.53;;
7737;SDS011;29398;45.328;5.558;2024-01-06T04:59:46;7.78;;;3.85;;
7737;SDS011;29398;45.328;5.558;2024-01-06T05:00:47;6.55;;;3.85;;
7737;SDS011;29398;45.328;5.558;2024-01-06T05:01:51;7.88;;;3.58;;
7737;SDS011;29398;45.328;5.558;2024-01-06T05:02:53;6.10;;;3.33;;
7737;SDS011;29398;45.328;5.558;2024-01-06T05:03:55;8.75;;;3.78;;
7737;SDS011;29398;45.328;5.558;2024-01-06T05:04:56;7.43;;;3.45;;
7737;SDS011;29398;45.328;5.558;2024-01-06T05:05:58;9.82;;;3.25;;
7737;SDS011;29398;45.328;5.558;2024-01-06T05:06:59;6.20;;;3.10;;
7737;SDS011;29398;45.328;5.558;2024-01-06T05:08:02;7.07;;;3.50;;
7737;SDS011;29398;45.328;5.558;2024-01-06T05:09:03;5.63;;;3.53;;
7737;SDS011;29398;45.328;5.558;2024-01-06T05:10:05;9.23;;;3.97;;
7737;SDS011;29398;45.328;5.558;2024-01-06T05:11:07;8.55;;;3.88;;
7737;SDS011;29398;45.328;5.558;2024-01-06T05:12:11;5.93;;;3.35;;
7737;SDS011;29398;45.328;5.558;2024-01-06T05:13:12;5.43;;;2.88;;
7737;SDS011;29398;45.328;5.558;2024-01-06T05:14:14;9.68;;;3.30;;
7737;SDS011;29398;45.328;5.558;2024-01-06T05:15:15;5.90;;;3.35;;
7737;SDS011;29398;45.328;5.558;2024-01-06T05:16:17;6.13;;;3.22;;
7737;SDS011;29398;45.328;5.558;2024-01-06T05:17:18;7.28;;;3.17;;
7737;SDS011;29398;45.328;5.558;2024-01-06T05:18:20;6.07;;;3.40;;
7737;SDS011;29398;45.328;5.558;2024-01-06T05:19:21;9.85;;;3.45;;
7737;SDS011;29398;45.328;5.558;2024-01-06T05:20:23;7.70;;;3.45;;
7737;SDS011;29398;45.328;5.558;2024-01-06T05:21:24;7.15;;;3.08;;
7737;SDS011;29398;45.328;5.558;2024-01-06T05:22:26;5.88;;;3.00;;
7737;SDS011;29398;45.328;5.558;2024-01-06T05:23:27;3.97;;;2.72;;
7737;SDS011;29398;45.328;5.558;2024-01-06T05:24:30;4.88;;;3.25;;
7737;SDS011;29398;45.328;5.558;2024-01-06T05:25:31;6.28;;;3.30;;
7737;SDS011;29398;45.328;5.558;2024-01-06T05:26:33;5.75;;;2.97;;
7737;SDS011;29398;45.328;5.558;2024-01-06T05:27:36;7.03;;;3.28;;
7737;SDS011;29398;45.328;5.558;2024-01-06T05:28:38;6.28;;;3.50;;
7737;SDS011;29398;45.328;5.558;2024-01-06T05:29:39;8.00;;;3.50;;
7737;SDS011;29398;45.328;5.558;2024-01-06T05:30:41;4.53;;;3.22;;
7737;SDS011;29398;45.328;5.558;2024-01-06T05:31:42;9.27;;;2.97;;
7737;SDS011;29398;45.328;5.558;2024-01-06T05:32:46;5.60;;;2.78;;
7737;SDS011;29398;45.328;5.558;2024-01-06T05:33:47;5.53;;;2.88;;
7737;SDS011;29398;45.328;5.558;2024-01-06T05:34:49;7.03;;;2.72;;
7737;SDS011;29398;45.328;5.558;2024-01-06T05:35:50;4.93;;;3.00;;
7737;SDS011;29398;45.328;5.558;2024-01-06T05:36:52;6.22;;;3.05;;
7737;SDS011;29398;45.328;5.558;2024-01-06T05:37:54;7.05;;;3.20;;
7737;SDS011;29398;45.328;5.558;2024-01-06T05:38:56;3.75;;;2.90;;
7737;SDS011;29398;45.328;5.558;2024-01-06T05:39:57;6.30;;;2.80;;
7737;SDS011;29398;45.328;5.558;2024-01-06T05:41:01;5.38;;;3.00;;
7737;SDS011;29398;45.328;5.558;2024-01-06T05:42:02;6.15;;;2.90;;
7737;SDS011;29398;45.328;5.558;2024-01-06T05:43:06;6.07;;;2.80;;
7737;SDS011;29398;45.328;5.558;2024-01-06T05:44:07;6.93;;;2.83;;
7737;SDS011;29398;45.328;5.558;2024-01-06T05:45:10;8.02;;;2.97;;
7737;SDS011;29398;45.328;5.558;2024-01-06T05:46:19;4.70;;;2.88;;
7737;SDS011;29398;45.328;5.558;2024-01-06T05:47:21;3.20;;;2.45;;
7737;SDS011;29398;45.328;5.558;2024-01-06T05:48:23;4.72;;;2.55;;
7737;SDS011;29398;45.328;5.558;2024-01-06T05:49:24;9.95;;;2.80;;
7737;SDS011;29398;45.328;5.558;2024-01-06T05:50:26;7.18;;;3.20;;
7737;SDS011;29398;45.328;5.558;2024-01-06T05:51:27;5.45;;;2.40;;
7737;SDS011;29398;45.328;5.558;2024-01-06T05:52:29;4.10;;;2.60;;
7737;SDS011;29398;45.328;5.558;2024-01-06T05:53:31;7.72;;;2.40;;
7737;SDS011;29398;45.328;5.558;2024-01-06T05:54:33;4.90;;;2.85;;
7737;SDS011;29398;45.328;5.558;2024-01-06T05:55:34;7.15;;;2.72;;
7737;SDS011;29398;45.328;5.558;2024-01-06T05:56:36;5.10;;;2.30;;
7737;SDS011;29398;45.328;5.558;2024-01-06T05:57:37;4.18;;;2.72;;
7737;SDS011;29398;45.328;5.558;2024-01-06T05:58:39;3.75;;;2.25;;
7737;SDS011;29398;45.328;5.558;2024-01-06T05:59:42;5.50;;;2.75;;
7737;SDS011;29398;45.328;5.558;2024-01-06T06:00:43;9.02;;;4.70;;
7737;SDS011;29398;45.328;5.558;2024-01-06T06:01:45;6.60;;;4.28;;
7737;SDS011;29398;45.328;5.558;2024-01-06T06:02:47;7.45;;;3.60;;
7737;SDS011;29398;45.328;5.558;2024-01-06T06:03:48;3.85;;;2.65;;
7737;SDS011;29398;45.328;5.558;2024-01-06T06:04:50;4.13;;;2.75;;
7737;SDS011;29398;45.328;5.558;2024-01-06T06:05:52;8.45;;;2.83;;
7737;SDS011;29398;45.328;5.558;2024-01-06T06:06:54;5.00;;;2.60;;
7737;SDS011;29398;45.328;5.558;2024-01-06T06:07:55;6.93;;;3.20;;
7737;SDS011;29398;45.328;5.558;2024-01-06T06:08:57;4.50;;;2.70;;
7737;SDS011;29398;45.328;5.558;2024-01-06T06:09:58;6.03;;;2.88;;
7737;SDS011;29398;45.328;5.558;2024-01-06T06:11:04;5.90;;;3.13;;
7737;SDS011;29398;45.328;5.558;2024-01-06T06:12:11;6.65;;;3.78;;
7737;SDS011;29398;45.328;5.558;2024-01-06T06:13:13;5.63;;;2.90;;
7737;SDS011;29398;45.328;5.558;2024-01-06T06:14:15;6.38;;;3.30;;
7737;SDS011;29398;45.328;5.558;2024-01-06T06:15:17;5.38;;;3.13;;
7737;SDS011;29398;45.328;5.558;2024-01-06T06:16:18;6.88;;;3.08;;